sensor_id;sensor_type;location;lat;lon;timestamp;pressure;altitude;pressure_sealevel;temperature
70123;BMP280;57489;37.404;24.920;2022-11-15T00:02:52;100722.16;;;20.51
70123;BMP280;57489;37.404;24.920;2022-11-15T00:07:52;100719.78;;;20.41
70123;BMP280;57489;37.404;24.920;2022-11-15T00:12:53;100712.38;;;20.38
70123;BMP280;57489;37.404;24.920;2022-11-15T00:17:53;100709.84;;;20.33
70123;BMP280;57489;37.404;24.920;2022-11-15T00:22:54;100714.41;;;20.32
70123;BMP280;57489;37.404;24.920;2022-11-15T00:27:55;100708.88;;;20.29
70123;BMP280;57489;37.404;24.920;2022-11-15T00:32:56;100709.50;;;20.26
70123;BMP280;57489;37.404;24.920;2022-11-15T00:37:56;100711.53;;;20.20
70123;BMP280;57489;37.404;24.920;2022-11-15T00:42:57;100711.69;;;20.24
70123;BMP280;57489;37.404;24.920;2022-11-15T00:47:57;100708.38;;;20.18
70123;BMP280;57489;37.404;24.920;2022-11-15T00:52:58;100702.91;;;20.14
70123;BMP280;57489;37.404;24.920;2022-11-15T00:57:58;100701.94;;;20.10
70123;BMP280;57489;37.404;24.920;2022-11-15T01:03:00;100706.13;;;20.11
70123;BMP280;57489;37.404;24.920;2022-11-15T01:08:00;100695.00;;;20.09
70123;BMP280;57489;37.404;24.920;2022-11-15T01:13:01;100700.03;;;20.02
70123;BMP280;57489;37.404;24.920;2022-11-15T01:18:01;100697.38;;;20.02
70123;BMP280;57489;37.404;24.920;2022-11-15T01:23:02;100695.78;;;20.01
70123;BMP280;57489;37.404;24.920;2022-11-15T01:28:02;100693.72;;;19.98
70123;BMP280;57489;37.404;24.920;2022-11-15T01:33:03;100696.88;;;20.00
70123;BMP280;57489;37.404;24.920;2022-11-15T01:38:03;100690.56;;;19.96
70123;BMP280;57489;37.404;24.920;2022-11-15T01:43:23;100690.56;;;19.96
70123;BMP280;57489;37.404;24.920;2022-11-15T01:48:30;100683.22;;;19.93
70123;BMP280;57489;37.404;24.920;2022-11-15T01:53:33;100686.47;;;19.90
70123;BMP280;57489;37.404;24.920;2022-11-15T01:58:34;100684.13;;;19.88
70123;BMP280;57489;37.404;24.920;2022-11-15T02:03:42;100692.59;;;19.90
70123;BMP280;57489;37.404;24.920;2022-11-15T02:08:44;100693.16;;;19.87
70123;BMP280;57489;37.404;24.920;2022-11-15T02:13:45;100697.13;;;19.90
70123;BMP280;57489;37.404;24.920;2022-11-15T02:19:02;100701.47;;;19.86
70123;BMP280;57489;37.404;24.920;2022-11-15T02:35:06;100711.16;;;19.82
70123;BMP280;57489;37.404;24.920;2022-11-15T02:40:25;100703.50;;;19.80
70123;BMP280;57489;37.404;24.920;2022-11-15T02:45:30;100708.34;;;19.78
70123;BMP280;57489;37.404;24.920;2022-11-15T02:50:34;100701.13;;;19.79
70123;BMP280;57489;37.404;24.920;2022-11-15T02:55:37;100705.69;;;19.78
70123;BMP280;57489;37.404;24.920;2022-11-15T03:00:57;100705.47;;;19.75
70123;BMP280;57489;37.404;24.920;2022-11-15T03:06:13;100695.63;;;19.75
70123;BMP280;57489;37.404;24.920;2022-11-15T03:11:17;100687.94;;;19.74
70123;BMP280;57489;37.404;24.920;2022-11-15T03:21:30;100693.25;;;19.74
70123;BMP280;57489;37.404;24.920;2022-11-15T03:26:33;100687.31;;;19.77
70123;BMP280;57489;37.404;24.920;2022-11-15T03:31:37;100687.63;;;19.75
70123;BMP280;57489;37.404;24.920;2022-11-15T03:36:39;100692.78;;;19.72
70123;BMP280;57489;37.404;24.920;2022-11-15T03:41:48;100685.78;;;19.76
70123;BMP280;57489;37.404;24.920;2022-11-15T03:46:58;100693.06;;;19.70
70123;BMP280;57489;37.404;24.920;2022-11-15T03:52:03;100688.84;;;19.69
70123;BMP280;57489;37.404;24.920;2022-11-15T03:57:04;100691.66;;;19.73
70123;BMP280;57489;37.404;24.920;2022-11-15T04:02:05;100692.28;;;19.70
70123;BMP280;57489;37.404;24.920;2022-11-15T04:07:05;100689.91;;;19.68
70123;BMP280;57489;37.404;24.920;2022-11-15T04:12:06;100679.59;;;19.67
70123;BMP280;57489;37.404;24.920;2022-11-15T04:17:06;100684.94;;;19.67
70123;BMP280;57489;37.404;24.920;2022-11-15T04:22:07;100692.91;;;19.67
70123;BMP280;57489;37.404;24.920;2022-11-15T04:27:08;100684.44;;;19.64
70123;BMP280;57489;37.404;24.920;2022-11-15T04:32:08;100688.97;;;19.64
70123;BMP280;57489;37.404;24.920;2022-11-15T04:37:09;100687.38;;;19.63
70123;BMP280;57489;37.404;24.920;2022-11-15T04:42:10;100689.75;;;19.64
70123;BMP280;57489;37.404;24.920;2022-11-15T04:47:11;100689.75;;;19.64
70123;BMP280;57489;37.404;24.920;2022-11-15T04:52:11;100700.25;;;19.61
70123;BMP280;57489;37.404;24.920;2022-11-15T04:57:12;100699.25;;;19.57
70123;BMP280;57489;37.404;24.920;2022-11-15T05:02:12;100695.50;;;19.58
70123;BMP280;57489;37.404;24.920;2022-11-15T05:07:13;100705.38;;;19.57
70123;BMP280;57489;37.404;24.920;2022-11-15T05:12:13;100708.03;;;19.57
70123;BMP280;57489;37.404;24.920;2022-11-15T05:17:13;100706.16;;;19.58
70123;BMP280;57489;37.404;24.920;2022-11-15T05:22:14;100712.25;;;19.58
70123;BMP280;57489;37.404;24.920;2022-11-15T05:27:14;100719.34;;;19.85
70123;BMP280;57489;37.404;24.920;2022-11-15T05:32:16;100729.78;;;20.04
70123;BMP280;57489;37.404;24.920;2022-11-15T05:37:18;100722.38;;;20.24
70123;BMP280;57489;37.404;24.920;2022-11-15T05:42:18;100730.09;;;20.34
70123;BMP280;57489;37.404;24.920;2022-11-15T05:47:25;100733.47;;;20.17
70123;BMP280;57489;37.404;24.920;2022-11-15T05:52:29;100730.63;;;20.13
70123;BMP280;57489;37.404;24.920;2022-11-15T05:57:31;100732.66;;;20.16
70123;BMP280;57489;37.404;24.920;2022-11-15T06:02:31;100747.25;;;20.19
70123;BMP280;57489;37.404;24.920;2022-11-15T06:07:32;100743.69;;;20.24
70123;BMP280;57489;37.404;24.920;2022-11-15T06:12:32;100748.56;;;20.30
70123;BMP280;57489;37.404;24.920;2022-11-15T06:17:33;100748.31;;;20.40
70123;BMP280;57489;37.404;24.920;2022-11-15T06:22:33;100748.00;;;20.51
70123;BMP280;57489;37.404;24.920;2022-11-15T06:27:34;100746.50;;;20.58
70123;BMP280;57489;37.404;24.920;2022-11-15T06:32:34;100749.75;;;20.55
70123;BMP280;57489;37.404;24.920;2022-11-15T06:37:35;100758.44;;;20.69
70123;BMP280;57489;37.404;24.920;2022-11-15T06:42:35;100752.38;;;20.78
70123;BMP280;57489;37.404;24.920;2022-11-15T06:47:44;100754.22;;;20.68
70123;BMP280;57489;37.404;24.920;2022-11-15T06:52:45;100749.38;;;20.79
70123;BMP280;57489;37.404;24.920;2022-11-15T06:57:51;100750.31;;;20.75
70123;BMP280;57489;37.404;24.920;2022-11-15T07:02:52;100753.44;;;20.77
70123;BMP280;57489;37.404;24.920;2022-11-15T07:07:53;100750.63;;;20.82
70123;BMP280;57489;37.404;24.920;2022-11-15T07:12:55;100754.72;;;20.79
70123;BMP280;57489;37.404;24.920;2022-11-15T07:17:55;100749.19;;;20.76
70123;BMP280;57489;37.404;24.920;2022-11-15T07:23:05;100757.84;;;20.73
70123;BMP280;57489;37.404;24.920;2022-11-15T07:28:05;100755.78;;;20.69
70123;BMP280;57489;37.404;24.920;2022-11-15T07:33:06;100752.66;;;20.76
70123;BMP280;57489;37.404;24.920;2022-11-15T07:38:06;100753.78;;;20.92
70123;BMP280;57489;37.404;24.920;2022-11-15T07:43:08;100751.44;;;20.91
70123;BMP280;57489;37.404;24.920;2022-11-15T07:48:09;100760.56;;;20.90
70123;BMP280;57489;37.404;24.920;2022-11-15T07:53:09;100751.59;;;20.86
70123;BMP280;57489;37.404;24.920;2022-11-15T07:58:11;100742.94;;;20.89
70123;BMP280;57489;37.404;24.920;2022-11-15T08:03:16;100740.78;;;20.91
70123;BMP280;57489;37.404;24.920;2022-11-15T08:08:16;100740.94;;;20.94
70123;BMP280;57489;37.404;24.920;2022-11-15T08:13:17;100750.56;;;21.04
70123;BMP280;57489;37.404;24.920;2022-11-15T08:18:17;100751.13;;;21.01
70123;BMP280;57489;37.404;24.920;2022-11-15T08:23:18;100749.28;;;21.10
70123;BMP280;57489;37.404;24.920;2022-11-15T08:28:18;100741.44;;;21.22
70123;BMP280;57489;37.404;24.920;2022-11-15T08:33:19;100732.19;;;21.20
70123;BMP280;57489;37.404;24.920;2022-11-15T08:38:19;100740.03;;;21.16
70123;BMP280;57489;37.404;24.920;2022-11-15T08:43:20;100747.25;;;21.25
70123;BMP280;57489;37.404;24.920;2022-11-15T08:48:20;100731.69;;;21.44
70123;BMP280;57489;37.404;24.920;2022-11-15T08:53:21;100732.94;;;21.64
70123;BMP280;57489;37.404;24.920;2022-11-15T08:58:21;100728.50;;;21.76
70123;BMP280;57489;37.404;24.920;2022-11-15T09:03:22;100727.28;;;21.65
70123;BMP280;57489;37.404;24.920;2022-11-15T09:08:23;100718.66;;;21.42
70123;BMP280;57489;37.404;24.920;2022-11-15T09:13:23;100709.25;;;21.54
70123;BMP280;57489;37.404;24.920;2022-11-15T09:18:24;100715.66;;;21.61
70123;BMP280;57489;37.404;24.920;2022-11-15T09:23:25;100694.59;;;21.68
70123;BMP280;57489;37.404;24.920;2022-11-15T09:28:26;100702.06;;;21.84
70123;BMP280;57489;37.404;24.920;2022-11-15T09:33:27;100691.38;;;21.84
70123;BMP280;57489;37.404;24.920;2022-11-15T09:38:28;100680.88;;;21.78
70123;BMP280;57489;37.404;24.920;2022-11-15T09:48:58;100687.25;;;21.95
70123;BMP280;57489;37.404;24.920;2022-11-15T10:04:47;100673.63;;;21.88
70123;BMP280;57489;37.404;24.920;2022-11-15T10:15:01;100662.53;;;22.07
70123;BMP280;57489;37.404;24.920;2022-11-15T10:20:17;100657.63;;;22.17
70123;BMP280;57489;37.404;24.920;2022-11-15T10:25:30;100655.13;;;22.12
70123;BMP280;57489;37.404;24.920;2022-11-15T10:30:37;100642.91;;;22.02
70123;BMP280;57489;37.404;24.920;2022-11-15T10:35:38;100637.53;;;22.11
70123;BMP280;57489;37.404;24.920;2022-11-15T10:40:40;100634.03;;;22.19
70123;BMP280;57489;37.404;24.920;2022-11-15T10:45:41;100632.91;;;22.20
70123;BMP280;57489;37.404;24.920;2022-11-15T10:50:46;100632.47;;;22.18
70123;BMP280;57489;37.404;24.920;2022-11-15T10:55:49;100619.38;;;22.25
70123;BMP280;57489;37.404;24.920;2022-11-15T11:00:52;100619.38;;;22.25
70123;BMP280;57489;37.404;24.920;2022-11-15T11:06:24;100623.97;;;22.16
70123;BMP280;57489;37.404;24.920;2022-11-15T11:11:46;100627.22;;;22.22
70123;BMP280;57489;37.404;24.920;2022-11-15T11:37:52;100618.50;;;22.34
70123;BMP280;57489;37.404;24.920;2022-11-15T11:43:02;100605.63;;;22.36
70123;BMP280;57489;37.404;24.920;2022-11-15T11:48:17;100600.53;;;22.43
70123;BMP280;57489;37.404;24.920;2022-11-15T11:54:01;100601.91;;;22.28
70123;BMP280;57489;37.404;24.920;2022-11-15T12:05:13;100591.56;;;21.97
70123;BMP280;57489;37.404;24.920;2022-11-15T12:10:22;100582.59;;;21.93
70123;BMP280;57489;37.404;24.920;2022-11-15T12:21:21;100588.31;;;21.83
70123;BMP280;57489;37.404;24.920;2022-11-15T12:26:28;100585.06;;;21.98
70123;BMP280;57489;37.404;24.920;2022-11-15T12:36:41;100588.78;;;21.85
70123;BMP280;57489;37.404;24.920;2022-11-15T13:17:53;100566.94;;;21.83
70123;BMP280;57489;37.404;24.920;2022-11-15T13:23:14;100555.69;;;21.68
70123;BMP280;57489;37.404;24.920;2022-11-15T13:33:31;100561.59;;;21.53
70123;BMP280;57489;37.404;24.920;2022-11-15T13:38:35;100560.53;;;21.37
70123;BMP280;57489;37.404;24.920;2022-11-15T13:43:36;100561.94;;;21.34
70123;BMP280;57489;37.404;24.920;2022-11-15T13:48:36;100563.09;;;21.25
70123;BMP280;57489;37.404;24.920;2022-11-15T13:53:39;100557.25;;;21.22
70123;BMP280;57489;37.404;24.920;2022-11-15T13:58:41;100554.59;;;21.22
70123;BMP280;57489;37.404;24.920;2022-11-15T14:03:56;100554.13;;;21.20
70123;BMP280;57489;37.404;24.920;2022-11-15T14:24:21;100539.75;;;21.04
70123;BMP280;57489;37.404;24.920;2022-11-15T14:29:29;100534.41;;;21.04
70123;BMP280;57489;37.404;24.920;2022-11-15T14:34:32;100541.00;;;20.98
70123;BMP280;57489;37.404;24.920;2022-11-15T14:39:32;100537.38;;;20.94
70123;BMP280;57489;37.404;24.920;2022-11-15T14:44:34;100517.63;;;20.95
70123;BMP280;57489;37.404;24.920;2022-11-15T14:49:34;100522.31;;;20.89
70123;BMP280;57489;37.404;24.920;2022-11-15T14:54:35;100522.66;;;20.88
70123;BMP280;57489;37.404;24.920;2022-11-15T14:59:35;100519.53;;;20.86
70123;BMP280;57489;37.404;24.920;2022-11-15T15:04:36;100523.13;;;20.81
70123;BMP280;57489;37.404;24.920;2022-11-15T15:09:36;100516.56;;;20.79
70123;BMP280;57489;37.404;24.920;2022-11-15T15:14:37;100515.59;;;20.75
70123;BMP280;57489;37.404;24.920;2022-11-15T15:19:37;100519.09;;;20.66
70123;BMP280;57489;37.404;24.920;2022-11-15T15:24:38;100512.31;;;20.69
70123;BMP280;57489;37.404;24.920;2022-11-15T15:29:39;100517.81;;;20.73
70123;BMP280;57489;37.404;24.920;2022-11-15T15:34:39;100520.81;;;20.62
70123;BMP280;57489;37.404;24.920;2022-11-15T15:39:40;100513.75;;;20.58
70123;BMP280;57489;37.404;24.920;2022-11-15T15:44:40;100507.50;;;20.54
70123;BMP280;57489;37.404;24.920;2022-11-15T15:49:41;100504.16;;;20.48
70123;BMP280;57489;37.404;24.920;2022-11-15T15:54:42;100498.06;;;20.48
70123;BMP280;57489;37.404;24.920;2022-11-15T15:59:42;100512.81;;;20.45
70123;BMP280;57489;37.404;24.920;2022-11-15T16:04:43;100512.97;;;20.40
70123;BMP280;57489;37.404;24.920;2022-11-15T16:09:43;100519.69;;;20.37
70123;BMP280;57489;37.404;24.920;2022-11-15T16:14:44;100520.47;;;20.47
70123;BMP280;57489;37.404;24.920;2022-11-15T16:19:44;100525.78;;;20.38
70123;BMP280;57489;37.404;24.920;2022-11-15T16:24:45;100526.44;;;20.35
70123;BMP280;57489;37.404;24.920;2022-11-15T16:29:46;100528.59;;;20.33
70123;BMP280;57489;37.404;24.920;2022-11-15T16:34:47;100525.94;;;20.33
70123;BMP280;57489;37.404;24.920;2022-11-15T16:39:47;100525.47;;;20.31
70123;BMP280;57489;37.404;24.920;2022-11-15T16:44:48;100521.75;;;20.32
70123;BMP280;57489;37.404;24.920;2022-11-15T16:49:48;100516.88;;;20.34
70123;BMP280;57489;37.404;24.920;2022-11-15T16:54:49;100527.66;;;20.29
70123;BMP280;57489;37.404;24.920;2022-11-15T16:59:49;100516.72;;;20.22
70123;BMP280;57489;37.404;24.920;2022-11-15T17:04:50;100516.84;;;20.16
70123;BMP280;57489;37.404;24.920;2022-11-15T17:09:50;100516.72;;;20.22
70123;BMP280;57489;37.404;24.920;2022-11-15T17:14:51;100518.56;;;20.21
70123;BMP280;57489;37.404;24.920;2022-11-15T17:19:52;100521.41;;;20.25
70123;BMP280;57489;37.404;24.920;2022-11-15T17:24:52;100515.47;;;20.28
70123;BMP280;57489;37.404;24.920;2022-11-15T17:29:53;100507.63;;;20.23
70123;BMP280;57489;37.404;24.920;2022-11-15T17:34:53;100516.72;;;20.22
70123;BMP280;57489;37.404;24.920;2022-11-15T17:39:54;100509.19;;;20.24
70123;BMP280;57489;37.404;24.920;2022-11-15T17:44:54;100513.59;;;20.20
70123;BMP280;57489;37.404;24.920;2022-11-15T17:49:55;100515.75;;;20.17
70123;BMP280;57489;37.404;24.920;2022-11-15T17:54:55;100511.88;;;20.41
70123;BMP280;57489;37.404;24.920;2022-11-15T17:59:55;100512.81;;;20.54
70123;BMP280;57489;37.404;24.920;2022-11-15T18:04:56;100517.94;;;20.67
70123;BMP280;57489;37.404;24.920;2022-11-15T18:09:56;100521.75;;;20.66
70123;BMP280;57489;37.404;24.920;2022-11-15T18:14:57;100511.09;;;20.66
70123;BMP280;57489;37.404;24.920;2022-11-15T18:19:57;100518.91;;;20.72
70123;BMP280;57489;37.404;24.920;2022-11-15T18:24:58;100519.97;;;20.88
70123;BMP280;57489;37.404;24.920;2022-11-15T18:29:58;100517.50;;;20.83
70123;BMP280;57489;37.404;24.920;2022-11-15T18:34:59;100523.28;;;20.85
70123;BMP280;57489;37.404;24.920;2022-11-15T18:39:59;100531.75;;;21.04
70123;BMP280;57489;37.404;24.920;2022-11-15T18:45:00;100525.47;;;21.00
70123;BMP280;57489;37.404;24.920;2022-11-15T18:50:00;100524.19;;;20.98
70123;BMP280;57489;37.404;24.920;2022-11-15T18:55:01;100535.66;;;20.98
70123;BMP280;57489;37.404;24.920;2022-11-15T19:00:02;100542.56;;;21.08
70123;BMP280;57489;37.404;24.920;2022-11-15T19:05:03;100546.13;;;21.20
70123;BMP280;57489;37.404;24.920;2022-11-15T19:10:03;100535.00;;;21.10
70123;BMP280;57489;37.404;24.920;2022-11-15T19:15:04;100533.28;;;21.14
70123;BMP280;57489;37.404;24.920;2022-11-15T19:20:05;100530.06;;;20.82
70123;BMP280;57489;37.404;24.920;2022-11-15T19:25:06;100535.53;;;20.68
70123;BMP280;57489;37.404;24.920;2022-11-15T19:30:07;100533.16;;;20.93
70123;BMP280;57489;37.404;24.920;2022-11-15T19:35:08;100532.59;;;21.26
70123;BMP280;57489;37.404;24.920;2022-11-15T19:40:09;100532.81;;;21.12
70123;BMP280;57489;37.404;24.920;2022-11-15T19:45:10;100531.06;;;21.25
70123;BMP280;57489;37.404;24.920;2022-11-15T19:50:10;100528.75;;;20.97
70123;BMP280;57489;37.404;24.920;2022-11-15T19:55:11;100516.50;;;21.05
70123;BMP280;57489;37.404;24.920;2022-11-15T20:00:11;100524.66;;;21.08
70123;BMP280;57489;37.404;24.920;2022-11-15T20:05:12;100525.28;;;20.96
70123;BMP280;57489;37.404;24.920;2022-11-15T20:10:13;100517.94;;;21.02
70123;BMP280;57489;37.404;24.920;2022-11-15T20:15:14;100525.88;;;21.19
70123;BMP280;57489;37.404;24.920;2022-11-15T20:20:15;100526.16;;;21.27
70123;BMP280;57489;37.404;24.920;2022-11-15T20:25:15;100516.16;;;21.23
70123;BMP280;57489;37.404;24.920;2022-11-15T20:30:16;100524.00;;;21.11
70123;BMP280;57489;37.404;24.920;2022-11-15T20:35:17;100508.44;;;21.13
70123;BMP280;57489;37.404;24.920;2022-11-15T20:40:18;100507.25;;;21.02
70123;BMP280;57489;37.404;24.920;2022-11-15T20:45:18;100509.25;;;21.14
70123;BMP280;57489;37.404;24.920;2022-11-15T20:50:19;100508.28;;;21.18
70123;BMP280;57489;37.404;24.920;2022-11-15T20:55:19;100492.44;;;21.13
70123;BMP280;57489;37.404;24.920;2022-11-15T21:00:20;100497.59;;;21.18
70123;BMP280;57489;37.404;24.920;2022-11-15T21:05:20;100490.53;;;21.22
70123;BMP280;57489;37.404;24.920;2022-11-15T21:10:21;100486.13;;;21.27
70123;BMP280;57489;37.404;24.920;2022-11-15T21:15:21;100489.53;;;20.89
70123;BMP280;57489;37.404;24.920;2022-11-15T21:20:22;100485.25;;;21.05
70123;BMP280;57489;37.404;24.920;2022-11-15T21:25:22;100480.50;;;21.19
70123;BMP280;57489;37.404;24.920;2022-11-15T21:30:23;100476.63;;;21.08
70123;BMP280;57489;37.404;24.920;2022-11-15T21:35:24;100482.84;;;21.21
70123;BMP280;57489;37.404;24.920;2022-11-15T21:40:25;100472.34;;;21.16
70123;BMP280;57489;37.404;24.920;2022-11-15T21:45:25;100470.50;;;21.16
70123;BMP280;57489;37.404;24.920;2022-11-15T21:50:26;100449.16;;;21.16
70123;BMP280;57489;37.404;24.920;2022-11-15T21:55:26;100449.94;;;21.17
70123;BMP280;57489;37.404;24.920;2022-11-15T22:00:26;100440.94;;;21.21
70123;BMP280;57489;37.404;24.920;2022-11-15T22:05:27;100444.50;;;21.26
70123;BMP280;57489;37.404;24.920;2022-11-15T22:10:27;100429.66;;;21.16
70123;BMP280;57489;37.404;24.920;2022-11-15T22:15:28;100427.69;;;21.04
70123;BMP280;57489;37.404;24.920;2022-11-15T22:20:28;100427.50;;;21.09
70123;BMP280;57489;37.404;24.920;2022-11-15T22:25:29;100427.84;;;20.99
70123;BMP280;57489;37.404;24.920;2022-11-15T22:30:30;100427.50;;;21.09
70123;BMP280;57489;37.404;24.920;2022-11-15T22:35:30;100431.13;;;21.05
70123;BMP280;57489;37.404;24.920;2022-11-15T22:40:32;100434.66;;;21.17
70123;BMP280;57489;37.404;24.920;2022-11-15T22:45:33;100433.94;;;21.08
70123;BMP280;57489;37.404;24.920;2022-11-15T22:50:33;100428.50;;;20.96
70123;BMP280;57489;37.404;24.920;2022-11-15T22:55:34;100418.63;;;20.88
70123;BMP280;57489;37.404;24.920;2022-11-15T23:00:36;100406.66;;;20.94
70123;BMP280;57489;37.404;24.920;2022-11-15T23:05:37;100402.44;;;20.93
70123;BMP280;57489;37.404;24.920;2022-11-15T23:10:38;100399.41;;;21.03
70123;BMP280;57489;37.404;24.920;2022-11-15T23:15:38;100395.69;;;21.04
70123;BMP280;57489;37.404;24.920;2022-11-15T23:20:39;100386.75;;;21.00
70123;BMP280;57489;37.404;24.920;2022-11-15T23:25:40;100388.56;;;21.08
70123;BMP280;57489;37.404;24.920;2022-11-15T23:30:41;100375.69;;;21.10
70123;BMP280;57489;37.404;24.920;2022-11-15T23:35:41;100376.25;;;20.95
70123;BMP280;57489;37.404;24.920;2022-11-15T23:40:42;100357.19;;;21.05
70123;BMP280;57489;37.404;24.920;2022-11-15T23:45:42;100355.88;;;20.82
70123;BMP280;57489;37.404;24.920;2022-11-15T23:50:45;100353.28;;;20.64
70123;BMP280;57489;37.404;24.920;2022-11-15T23:56:09;100343.28;;;20.53
